• Join FlightAware (Why Join?)
  • Login
  • US Flag 
02:34PM EST


 

Airport Tracker/Info


-or-


 

Live Flight TrackerFlight Track Log ✈ N496DA ✈ 15-Feb-2014 ✈ KSFB - KFXE

Flight Track Log - Related Links

Times and Time Zones

All times are in EST time to prevent confusion due to time zone crossing. See the N496DA flight status page for this flight to view local times or setup timezone preferences in your user account.

Time Position Orientation Groundspeed Altitude Reporting Facility
EST Latitude Longitude Course Direction KTS MPH feet Rate Location/Type
09:52AM 28.7667 -81.2667 270° West 88 101 700  Level Orlando TRACON
09:53AM 28.7667 -81.2833 270° West 95 109 1,000 659 Climbing Orlando TRACON
09:54AM 28.7500 -81.2833 180° South 134 154 1,700 626 Climbing Orlando TRACON
09:55AM 28.7333 -81.2500 120° Southeast 154 177 2,200 632 Climbing Orlando TRACON
09:56AM 28.7000 -81.2167 139° Southeast 137 158 2,900 650 Climbing Orlando TRACON
09:57AM 28.6833 -81.1833 120° Southeast 142 163 3,500 595 Climbing Orlando TRACON
09:58AM 28.6667 -81.1500 120° Southeast 146 168 4,100 248 Climbing Orlando TRACON
09:59AM 28.6333 -81.1000 127° Southeast 156 180 4,000  Descending Orlando TRACON
10:00AM 28.5833 -81.1000 180° South 150 173 4,100 50 Climbing Orlando TRACON
10:01AM 28.5500 -81.0833 156° South 150 173 4,100  Level Orlando TRACON
10:02AM 28.5000 -81.0667 164° South 150 173 4,100  Level Orlando TRACON
10:03AM 28.4667 -81.0500 156° South 143 165 4,100  Level Orlando TRACON
10:04AM 28.4333 -81.0333 156° South 142 163 4,100  Level Orlando TRACON
10:05AM 28.4000 -81.0167 156° South 136 157 4,100  Level Orlando TRACON
10:06AM 28.3667 -81.0000 156° South 134 154 4,100  Level Orlando TRACON
10:07AM 28.3167 -81.0000 180° South 139 160 4,100  Level Orlando TRACON
10:08AM 28.2833 -80.9833 156° South 135 155 4,100  Level Orlando TRACON
10:09AM 28.2500 -80.9667 156° South 129 148 4,100  Level Orlando TRACON
10:10AM 28.2167 -80.9500 156° South 129 148 4,100  Level Orlando TRACON
10:11AM 28.1833 -80.9333 156° South 130 150 4,100  Level Orlando TRACON
10:12AM 28.1500 -80.9333 180° South 128 147 4,100  Level Orlando TRACON
10:13AM 28.1167 -80.9167 156° South 129 148 4,100  Level Orlando TRACON
10:14AM 28.0833 -80.9000 156° South 129 148 4,100  Level Orlando TRACON
10:15AM 28.0500 -80.9000 180° South 134 154 4,100  Level Orlando TRACON
10:16AM 28.0167 -80.8833 156° South 144 166 4,100  Level Orlando TRACON
10:17AM 27.9589 -80.8600 160° South 144 166 4,100 -43 Level Miami Center
10:18AM 27.9219 -80.8447 160° South 144 166 4,000  Descending Miami Center
10:19AM 27.8889 -80.8317 161° South 149 171 4,100  Climbing Miami Center
10:20AM 27.8494 -80.8164 161° South 149 171 4,000  Descending Miami Center
10:21AM 27.8119 -80.8150 178° South 139 160 4,100 50 Climbing Miami Center
10:22AM 27.7831 -80.8117 174° South 134 154 4,100 -50 Level Miami Center
10:23AM 27.7433 -80.8078 175° South 134 154 4,000 -50 Descending Miami Center
10:24AM 27.7081 -80.8019 172° South 134 154 4,000 50 Level Miami Center
10:25AM 27.6728 -80.7961 172° South 129 148 4,100  Climbing Miami Center
10:26AM 27.6372 -80.7925 175° South 129 148 4,000  Descending Miami Center
10:27AM 27.6042 -80.7889 174° South 129 148 4,100  Climbing Miami Center
10:28AM 27.5644 -80.7831 173° South 129 148 4,000 -50 Descending Miami Center
10:29AM 27.5292 -80.7772 172° South 129 148 4,000  Level Miami Center
10:30AM 27.4939 -80.7711 171° South 129 148 4,000 50 Level Miami Center
10:31AM 27.4586 -80.7678 175° South 129 148 4,100  Climbing Miami Center
10:32AM 27.4253 -80.7594 167° South 129 148 4,000  Descending Miami Center
10:33AM 27.3919 -80.7536 171° South 129 148 4,100  Climbing Miami Center
10:34AM 27.3544 -80.7525 178° South 123 142 4,000  Descending Miami Center
10:35AM 27.3214 -80.7467 171° South 123 142 4,100  Climbing Miami Center
10:36AM 27.2858 -80.7408 172° South 123 142 4,000  Descending Miami Center
10:37AM 27.2547 -80.7375 175° South 123 142 4,100  Climbing Miami Center
10:38AM 27.2172 -80.7361 178° South 123 142 4,000 -50 Descending Miami Center
10:39AM 27.1778 -80.7303 173° South 123 142 4,000  Level Miami Center
10:40AM 27.1422 -80.7267 175° South 128 147 4,000  Level Miami Center
10:41AM 27.1067 -80.7256 178° South 133 153 4,000  Level Miami Center
10:42AM 27.0733 -80.7219 174° South 133 153 4,000  Level Miami Center
10:43AM 27.0297 -80.7183 176° South 139 160 4,000  Level Miami Center
10:44AM 26.9944 -80.7147 175° South 139 160 4,000 -81 Level Miami Center
10:54AM 26.6069 -80.5997 158° South 151 174 3,100 -85 Descending Miami Center
10:55AM 26.6340 -80.6170 156° South  Level FlightAware Approximate
10:56AM 26.6010 -80.6005 156° South  Level FlightAware Approximate
10:56AM 26.5511 -80.5772 160° South 138 159 3,000  Level Miami Center
10:57AM 26.5680 -80.5840 156° South  Level FlightAware Approximate
10:57AM 26.5200 -80.5644 160° South 138 159 3,000  Level Miami Center
10:58AM 26.5345 -80.5687 158° South  Level FlightAware Approximate
10:58AM 26.4808 -80.5494 161° South 136 157 3,000  Level Miami Center
10:59AM 26.5010 -80.5535 158° South  Level FlightAware Approximate
10:59AM 26.4414 -80.5389 167° South 139 160 3,000  Level Miami Center
11:00AM 26.4675 -80.5382 158° South  Level FlightAware Approximate
11:00AM 26.4019 -80.5214 158° South 140 161 3,000  Level Miami Center
11:01AM 26.3650 -80.4994 152° Southeast 141 162 3,000  Level Miami Center
11:02AM 26.3300 -80.4775 151° Southeast 142 163 3,000  Level Miami Center
11:03AM 26.3036 -80.4464 133° Southeast 151 174 3,000  Level Miami Center
11:04AM 26.2839 -80.4042 118° Southeast 159 183 3,000  Level Miami Center
11:05AM 26.2725 -80.3597 106° East 158 182 3,000 -205 Level Miami Center
11:06AM 26.2650 -80.3133 100° East 170 196 2,600 -246 Descending Miami Center
11:07AM 26.2644 -80.2578 91° East 157 181 2,500 -234 Descending Miami Center
11:08AM 26.2697 -80.2044 84° East 155 178 2,100 -195 Descending Miami Center
11:09AM 26.2708 -80.1606 88° East 147 169 2,100  Level Miami Center
11:10AM 26.2506 -80.1253 123° Southeast 140 161 2,100  Level Miami Center
11:11AM 26.2136 -80.1011 150° Southeast 122 140 2,100 -390 Level Miami Center
11:12AM 26.2006 -80.1217 235° Southwest 84 97 1,300 -872 Descending Miami Center
11:13AM 26.1981 -80.1469 264° West 73 84 400 -885 Descending Miami Center
11:15AM 26.1973 -80.1707 264° West  Level Estimated
11:22AM 26.1973 -80.1707 70° East  Level Estimated